createdAt,value
2019-03-21T00:02:10.578Z,93.30
2019-03-21T00:07:11.899Z,93.40
2019-03-21T00:12:13.254Z,93.30
2019-03-21T00:17:32.506Z,93.40
2019-03-21T00:22:33.833Z,93.40
2019-03-21T00:27:35.226Z,93.50
2019-03-21T00:32:36.549Z,93.50
2019-03-21T00:37:38.008Z,93.50
2019-03-21T00:42:39.517Z,93.50
2019-03-21T00:47:41.204Z,93.40
2019-03-21T00:52:44.532Z,93.30
2019-03-21T00:57:47.033Z,93.20
2019-03-21T01:02:48.626Z,93.20
2019-03-21T01:07:50.077Z,93.10
2019-03-21T01:12:51.392Z,93.10
2019-03-21T01:17:54.609Z,93.20
2019-03-21T01:22:55.998Z,93.20
2019-03-21T01:27:57.322Z,93.60
2019-03-21T01:32:58.604Z,93.40
2019-03-21T01:38:00.258Z,93.40
2019-03-21T01:43:01.787Z,93.40
2019-03-21T01:48:05.942Z,93.50
2019-03-21T01:53:07.400Z,93.50
2019-03-21T01:58:08.924Z,93.60
2019-03-21T02:03:11.465Z,93.60
2019-03-21T02:08:13.127Z,93.70
2019-03-21T02:13:15.591Z,93.60
2019-03-21T02:18:17.090Z,93.70
2019-03-21T02:23:18.527Z,93.70
2019-03-21T02:28:19.952Z,93.80
2019-03-21T02:33:37.971Z,93.90
2019-03-21T02:38:39.686Z,94.10
2019-03-21T02:43:41.197Z,94.00
2019-03-21T02:48:44.155Z,94.20
2019-03-21T02:53:46.033Z,94.30
2019-03-21T02:58:49.592Z,94.30
2019-03-21T03:03:51.565Z,94.30
2019-03-21T03:08:52.960Z,94.20
2019-03-21T03:13:54.958Z,94.20
2019-03-21T03:18:56.479Z,94.20
2019-03-21T03:23:59.602Z,94.20
2019-03-21T03:29:01.120Z,94.20
2019-03-21T03:34:03.074Z,94.20
2019-03-21T03:39:06.528Z,94.20
2019-03-21T03:44:09.153Z,94.30
2019-03-21T03:49:11.307Z,94.30
2019-03-21T03:54:13.737Z,94.30
2019-03-21T03:59:15.426Z,94.30
2019-03-21T04:04:16.999Z,94.30
2019-03-21T04:09:18.345Z,94.30
2019-03-21T04:14:19.782Z,94.50
2019-03-21T04:19:39.917Z,94.60
2019-03-21T04:24:41.238Z,94.60
2019-03-21T04:29:42.655Z,94.50
2019-03-21T04:34:44.151Z,94.50
2019-03-21T04:39:45.780Z,94.50
2019-03-21T04:44:47.205Z,94.50
2019-03-21T04:49:49.590Z,94.60
2019-03-21T04:54:50.901Z,94.70
2019-03-21T04:59:52.337Z,94.70
2019-03-21T05:04:53.683Z,94.70
2019-03-21T05:09:55.020Z,94.80
2019-03-21T05:14:56.335Z,94.80
2019-03-21T05:19:57.732Z,94.80
2019-03-21T05:24:59.039Z,94.80
2019-03-21T05:30:00.467Z,94.90
2019-03-21T05:35:02.632Z,95.00
2019-03-21T05:40:14.734Z,95.10
2019-03-21T05:45:22.555Z,95.10
2019-03-21T05:50:23.966Z,95.10
2019-03-21T05:55:26.827Z,95.20
2019-03-21T06:00:40.268Z,95.20
2019-03-21T06:05:49.998Z,95.30
2019-03-21T06:10:51.268Z,95.40
2019-03-21T06:15:52.868Z,95.40
2019-03-21T06:21:07.738Z,95.60
2019-03-21T06:26:20.757Z,95.70
2019-03-21T06:31:22.220Z,95.80
2019-03-21T06:36:23.593Z,95.80
2019-03-21T06:41:32.764Z,95.90
2019-03-21T06:46:48.504Z,95.90
2019-03-21T06:51:39.829Z,96.00
2019-03-21T06:56:41.265Z,96.10
2019-03-21T07:01:43.569Z,96.20
2019-03-21T07:06:44.851Z,96.40
2019-03-21T07:11:46.304Z,96.40
2019-03-21T07:16:47.859Z,96.60
2019-03-21T07:21:49.220Z,96.80
2019-03-21T07:26:50.874Z,97.00
2019-03-21T07:31:52.286Z,97.00
2019-03-21T07:36:53.813Z,97.10
2019-03-21T07:41:55.135Z,97.10
2019-03-21T07:46:56.544Z,97.00
2019-03-21T07:51:57.975Z,97.00
2019-03-21T07:56:59.386Z,96.90
2019-03-21T08:02:00.832Z,96.80
2019-03-21T08:07:04.640Z,96.80
2019-03-21T08:12:06.859Z,96.70
2019-03-21T08:17:08.664Z,96.70
2019-03-21T08:22:11.198Z,96.70
2019-03-21T08:27:12.934Z,96.50
2019-03-21T08:32:15.969Z,96.40
2019-03-21T08:37:37.678Z,96.20
2019-03-21T08:42:39.078Z,96.00
2019-03-21T08:47:40.501Z,95.80
2019-03-21T08:52:42.066Z,95.50
2019-03-21T08:57:46.702Z,95.20
2019-03-21T09:02:48.540Z,95.00
2019-03-21T09:07:49.828Z,94.70
2019-03-21T09:12:51.203Z,94.60
2019-03-21T09:17:55.535Z,94.60
2019-03-21T09:22:57.230Z,94.20
2019-03-21T09:28:02.856Z,93.90
2019-03-21T09:33:01.886Z,93.30
2019-03-21T09:38:03.719Z,92.90
2019-03-21T09:43:05.253Z,92.40
2019-03-21T09:48:06.639Z,92.20
2019-03-21T09:53:08.452Z,91.90
2019-03-21T09:58:11.413Z,91.80
2019-03-21T10:03:14.321Z,91.20
2019-03-21T10:08:16.341Z,90.90
2019-03-21T10:13:17.933Z,90.60
2019-03-21T10:18:19.539Z,90.40
2019-03-21T10:23:21.048Z,89.70
2019-03-21T10:28:23.203Z,89.30
2019-03-21T10:33:24.720Z,88.10
2019-03-21T10:38:26.196Z,85.80
2019-03-21T10:43:27.730Z,85.20
2019-03-21T10:48:32.606Z,84.10
2019-03-21T10:53:34.081Z,82.60
2019-03-21T10:58:39.095Z,83.10
2019-03-21T11:03:40.735Z,83.40
2019-03-21T11:08:45.988Z,82.60
2019-03-21T11:13:47.798Z,82.30
2019-03-21T11:18:51.017Z,81.90
2019-03-21T11:23:52.972Z,81.80
2019-03-21T11:28:54.264Z,81.70
2019-03-21T11:33:55.706Z,81.40
2019-03-21T11:38:57.126Z,81.00
2019-03-21T11:43:58.848Z,80.80
2019-03-21T11:49:01.136Z,80.90
2019-03-21T11:54:03.163Z,81.10
2019-03-21T11:59:04.758Z,80.60
2019-03-21T12:04:06.315Z,80.70
2019-03-21T12:09:08.566Z,80.40
2019-03-21T12:14:11.828Z,80.50
2019-03-21T12:19:13.337Z,81.00
2019-03-21T12:24:16.263Z,81.00
2019-03-21T12:29:20.115Z,81.70
2019-03-21T12:34:21.970Z,82.30
2019-03-21T12:39:29.032Z,82.40
2019-03-21T12:44:30.470Z,82.60
2019-03-21T12:49:33.783Z,82.60
2019-03-21T12:54:35.321Z,82.90
2019-03-21T12:59:36.789Z,83.00
2019-03-21T13:04:40.263Z,82.90
2019-03-21T13:09:42.419Z,82.90
2019-03-21T13:14:43.884Z,82.90
2019-03-21T13:19:46.618Z,82.80
2019-03-21T13:24:48.254Z,82.50
2019-03-21T13:29:50.106Z,82.30
2019-03-21T13:34:51.420Z,82.00
2019-03-21T13:39:52.969Z,81.70
2019-03-21T13:44:54.342Z,81.50
2019-03-21T13:49:56.793Z,81.80
2019-03-21T14:00:20.981Z,81.30
2019-03-21T14:05:22.601Z,81.20
2019-03-21T14:10:43.014Z,81.60
2019-03-21T14:15:45.510Z,81.80
2019-03-21T14:20:47.270Z,81.50
2019-03-21T14:25:48.755Z,81.50
2019-03-21T14:30:52.013Z,81.10
2019-03-21T14:36:03.994Z,81.10
2019-03-21T14:41:07.612Z,81.20
2019-03-21T14:46:09.194Z,80.80
2019-03-21T14:51:10.567Z,80.80
2019-03-21T14:56:12.023Z,80.70
2019-03-21T15:01:16.446Z,81.00
2019-03-21T15:06:18.725Z,80.80
2019-03-21T15:11:21.452Z,80.60
2019-03-21T15:16:24.931Z,80.60
2019-03-21T15:21:27.279Z,80.90
2019-03-21T15:26:28.923Z,80.70
2019-03-21T15:31:31.071Z,81.60
2019-03-21T15:36:34.120Z,81.10
2019-03-21T15:41:55.555Z,80.80
2019-03-21T15:46:56.888Z,81.00
2019-03-21T15:52:00.224Z,81.10
2019-03-21T15:57:01.649Z,80.80
2019-03-21T16:02:03.404Z,80.90
2019-03-21T16:07:04.848Z,80.90
2019-03-21T16:12:09.529Z,81.40
2019-03-21T16:17:10.863Z,82.00
2019-03-21T16:22:14.137Z,82.40
2019-03-21T16:27:17.736Z,83.10
2019-03-21T16:32:19.093Z,83.70
2019-03-21T16:37:21.116Z,84.10
2019-03-21T16:42:22.539Z,84.40
2019-03-21T16:47:24.209Z,84.80
2019-03-21T16:52:25.827Z,85.10
2019-03-21T16:57:28.203Z,85.60
2019-03-21T17:02:30.620Z,85.90
2019-03-21T17:07:32.103Z,86.40
2019-03-21T17:12:37.419Z,86.60
2019-03-21T17:17:39.180Z,87.00
2019-03-21T17:22:40.653Z,87.40
2019-03-21T17:27:42.412Z,87.60
2019-03-21T17:32:44.653Z,87.90
2019-03-21T17:37:46.956Z,88.00
2019-03-21T17:42:48.395Z,88.30
2019-03-21T17:47:49.918Z,88.60
2019-03-21T17:52:52.594Z,89.00
2019-03-21T17:57:54.287Z,89.30
2019-03-21T18:02:56.651Z,89.40
2019-03-21T18:07:58.113Z,89.60
2019-03-21T18:13:01.802Z,90.00
2019-03-21T18:18:03.656Z,90.20
2019-03-21T18:23:05.276Z,90.30
2019-03-21T18:28:08.959Z,90.50
2019-03-21T18:33:12.179Z,90.60
2019-03-21T18:38:13.880Z,90.80
2019-03-21T18:43:15.238Z,90.90
2019-03-21T18:48:16.710Z,91.00
2019-03-21T18:53:18.168Z,91.60
2019-03-21T18:58:19.590Z,91.40
2019-03-21T19:03:20.922Z,91.40
2019-03-21T19:08:22.327Z,91.70
2019-03-21T19:13:23.708Z,91.70
2019-03-21T19:18:25.494Z,91.80
2019-03-21T19:23:30.047Z,92.00
2019-03-21T19:28:31.609Z,92.00
2019-03-21T19:33:33.324Z,92.10
2019-03-21T19:38:34.770Z,92.10
2019-03-21T19:43:36.523Z,92.30
2019-03-21T19:48:49.415Z,92.50
2019-03-21T19:53:41.939Z,92.70
2019-03-21T19:58:45.147Z,92.70
2019-03-21T20:03:47.200Z,92.80
2019-03-21T20:08:48.742Z,92.90
2019-03-21T20:13:50.464Z,92.90
2019-03-21T20:18:51.858Z,92.90
2019-03-21T20:23:53.387Z,93.10
2019-03-21T20:28:54.850Z,93.30
2019-03-21T20:33:57.064Z,93.30
2019-03-21T20:38:58.497Z,93.30
2019-03-21T20:44:00.053Z,93.40
2019-03-21T20:49:01.558Z,93.50
2019-03-21T20:54:04.791Z,93.60
2019-03-21T20:59:08.617Z,93.60
2019-03-21T21:04:12.124Z,93.70
2019-03-21T21:09:13.891Z,93.60
2019-03-21T21:14:15.269Z,93.70
2019-03-21T21:19:16.793Z,93.90
2019-03-21T21:24:18.475Z,94.00
2019-03-21T21:29:20.108Z,94.00
2019-03-21T21:34:21.524Z,94.20
2019-03-21T21:39:26.369Z,94.20
2019-03-21T21:44:27.945Z,94.30
2019-03-21T21:49:29.386Z,94.40
2019-03-21T21:54:30.833Z,94.30
2019-03-21T21:59:32.588Z,94.40
2019-03-21T22:04:34.706Z,94.60
2019-03-21T22:09:38.155Z,94.90
2019-03-21T22:14:40.084Z,94.90
2019-03-21T22:19:44.320Z,94.90
2019-03-21T22:24:57.389Z,95.00
2019-03-21T22:30:17.293Z,94.90
2019-03-21T22:35:18.961Z,95.10
2019-03-21T22:40:20.429Z,95.20
2019-03-21T22:45:21.935Z,95.10
2019-03-21T22:50:24.163Z,95.20
2019-03-21T22:55:25.875Z,95.40
2019-03-21T23:00:38.850Z,95.60
2019-03-21T23:05:40.472Z,96.00
2019-03-21T23:10:41.971Z,95.80
2019-03-21T23:15:43.803Z,96.20
2019-03-21T23:20:45.290Z,95.80
2019-03-21T23:25:46.874Z,95.90
2019-03-21T23:30:48.573Z,96.10
2019-03-21T23:35:50.991Z,96.10
2019-03-21T23:40:56.275Z,96.00
2019-03-21T23:45:57.698Z,96.00
2019-03-21T23:50:59.318Z,95.80
2019-03-21T23:56:00.933Z,95.60
